Time;durP1;ratioP1;P1;durP2;ratioP2;P2;SDS_P1;SDS_P2;PMS_P1;PMS_P2;Temp;Humidity;BMP_temperature;BMP_pressure;BME280_temperature;BME280_humidity;BME280_pressure;Samples;Min_cycle;Max_cycle;Signal;HPM_P1;HPM_P2
2023/01/29 00:01:35;;;;;;;26.95;12.75;;;;;;;3.41;79.09;103236.47;6104141;19;20014;-76
2023/01/29 00:03:43;;;;;;;23.58;12.82;;;;;;;3.41;78.66;103228.69;6101243;19;20042;-76
2023/01/29 00:05:48;;;;;;;25.00;12.43;;;;;;;3.40;79.14;103222.59;6103625;19;20046;-76
2023/01/29 00:07:53;;;;;;;27.30;12.55;;;;;;;3.41;78.89;103219.16;6102674;19;20394;-75
2023/01/29 00:10:00;;;;;;;23.70;12.43;;;;;;;3.39;78.96;103219.94;6102659;19;20019;-75
2023/01/29 00:12:07;;;;;;;29.23;12.20;;;;;;;3.42;78.66;103220.94;6102930;19;20035;-75
2023/01/29 00:14:21;;;;;;;24.75;12.48;;;;;;;3.43;78.63;103219.22;6103201;19;20011;-78
2023/01/29 00:16:26;;;;;;;21.83;12.07;;;;;;;3.48;78.72;103212.41;6106475;19;20006;-76
2023/01/29 00:18:32;;;;;;;25.02;12.43;;;;;;;3.46;78.47;103208.88;6102053;19;20471;-75
2023/01/29 00:20:36;;;;;;;28.30;14.30;;;;;;;3.48;78.18;103210.69;6104151;19;20017;-76
2023/01/29 00:22:41;;;;;;;26.00;13.25;;;;;;;3.48;78.07;103205.50;6104058;19;20082;-75
2023/01/29 00:24:54;;;;;;;23.95;11.40;;;;;;;3.51;78.28;103210.78;6101893;19;20026;-75
2023/01/29 00:27:00;;;;;;;30.02;14.07;;;;;;;3.48;78.20;103202.03;6104255;19;20010;-77
2023/01/29 00:29:06;;;;;;;23.20;12.10;;;;;;;3.51;78.28;103202.09;6105546;19;20021;-76
2023/01/29 00:31:17;;;;;;;24.92;13.85;;;;;;;3.52;78.12;103203.84;6080346;19;20062;-78
2023/01/29 00:33:23;;;;;;;25.55;12.15;;;;;;;3.54;78.26;103207.38;6080625;19;20018;-77
2023/01/29 00:35:29;;;;;;;24.98;13.63;;;;;;;3.54;78.09;103212.56;6100858;19;20007;-76
2023/01/29 00:37:37;;;;;;;25.58;12.75;;;;;;;3.52;78.11;103212.50;6082034;19;20013;-77
2023/01/29 00:39:42;;;;;;;25.58;14.15;;;;;;;3.51;78.31;103210.78;6101482;19;20018;-75
2023/01/29 00:46:29;;;;;;;21.55;11.30;;;;;;;3.51;78.35;103192.56;6103246;19;20010;-77
2023/01/29 00:48:35;;;;;;;25.67;13.45;;;;;;;3.54;77.93;103189.19;6103223;19;20007;-76
2023/01/29 00:50:39;;;;;;;29.30;12.93;;;;;;;3.54;78.21;103186.56;6082399;19;20009;-76
2023/01/29 00:52:44;;;;;;;27.95;12.75;;;;;;;3.52;78.32;103186.53;6099339;19;20044;-76
2023/01/29 00:54:50;;;;;;;22.30;13.07;;;;;;;3.52;78.07;103185.66;6107322;19;20579;-76
2023/01/29 00:56:55;;;;;;;24.92;12.45;;;;;;;3.52;77.97;103185.66;6103889;19;20019;-76
2023/01/29 00:59:00;;;;;;;27.95;12.27;;;;;;;3.52;77.61;103185.66;6106990;19;20021;-76
2023/01/29 01:01:05;;;;;;;28.95;15.30;;;;;;;3.50;77.67;103185.63;6082390;19;20006;-75
2023/01/29 01:03:16;;;;;;;25.67;14.07;;;;;;;3.50;77.85;103185.63;6105198;19;20018;-75
2023/01/29 01:05:27;;;;;;;26.98;13.50;;;;;;;3.49;78.01;103180.38;6108971;19;20014;-76
2023/01/29 01:07:35;;;;;;;28.40;13.30;;;;;;;3.56;77.49;103178.84;6100484;19;20015;-75
2023/01/29 01:11:59;;;;;;;27.33;12.80;;;;;;;3.56;77.00;103176.22;6082375;19;20083;-75
2023/01/29 01:14:07;;;;;;;23.90;12.50;;;;;;;3.56;77.15;103174.50;6102859;19;20011;-76
2023/01/29 01:16:15;;;;;;;22.05;11.77;;;;;;;3.55;76.88;103177.94;6103285;19;20553;-75
2023/01/29 01:18:24;;;;;;;21.23;11.82;;;;;;;3.56;76.74;103181.44;6081347;19;20489;-75
2023/01/29 01:20:31;;;;;;;25.67;12.95;;;;;;;3.59;76.88;103182.38;6098745;19;20015;-75
2023/01/29 01:22:38;;;;;;;24.85;13.23;;;;;;;3.56;76.63;103184.91;6099425;19;20014;-76
2023/01/29 01:24:52;;;;;;;27.60;13.18;;;;;;;3.59;76.76;103181.50;6101164;19;20235;-75
2023/01/29 01:26:57;;;;;;;30.92;12.90;;;;;;;3.55;77.03;103183.13;6097692;19;20082;-75
2023/01/29 01:29:02;;;;;;;26.67;12.93;;;;;;;3.57;77.17;103190.97;6102862;19;20018;-76
2023/01/29 01:31:12;;;;;;;25.52;12.07;;;;;;;3.56;76.95;103187.50;6101224;19;20018;-76
2023/01/29 01:33:18;;;;;;;28.38;12.60;;;;;;;3.56;76.50;103195.31;6100591;19;20014;-76
2023/01/29 01:35:27;;;;;;;27.05;12.38;;;;;;;3.55;76.94;103193.53;6101152;19;20332;-76
2023/01/29 01:37:32;;;;;;;25.40;11.95;;;;;;;3.53;76.64;103184.81;6094119;19;20006;-76
2023/01/29 01:39:37;;;;;;;25.70;12.70;;;;;;;3.58;76.74;103192.72;6082122;19;20035;-76
2023/01/29 01:41:42;;;;;;;22.42;11.35;;;;;;;3.58;76.56;103192.72;6079195;19;20018;-76
2023/01/29 01:43:53;;;;;;;20.85;11.57;;;;;;;3.56;76.71;103200.50;6098068;19;20055;-75
2023/01/29 01:46:00;;;;;;;18.52;10.48;;;;;;;3.53;76.49;103192.63;6100430;19;20010;-76
2023/01/29 01:48:13;;;;;;;24.30;11.77;;;;;;;3.52;76.45;103189.13;6099597;19;20018;-76
2023/01/29 01:50:23;;;;;;;24.10;11.60;;;;;;;3.56;76.56;103200.50;6102903;19;20011;-77
2023/01/29 01:52:34;;;;;;;21.40;10.18;;;;;;;3.56;76.33;103191.81;6099065;19;20014;-77
2023/01/29 01:54:39;;;;;;;22.58;11.32;;;;;;;3.53;76.59;103200.41;6102516;19;20010;-76
2023/01/29 01:56:51;;;;;;;24.75;11.57;;;;;;;3.51;76.79;103194.28;6103075;19;20586;-76
2023/01/29 01:58:58;;;;;;;22.90;10.43;;;;;;;3.50;76.95;103201.22;6102671;19;20482;-76
2023/01/29 02:01:07;;;;;;;23.15;10.10;;;;;;;3.49;76.77;103199.44;6079956;19;20003;-76
2023/01/29 02:10:17;;;;;;;23.40;11.63;;;;;;;3.48;76.78;103187.28;6101865;19;20011;-75
2023/01/29 02:12:24;;;;;;;22.45;10.77;;;;;;;3.51;77.00;103189.97;6098589;19;20673;-76
2023/01/29 02:14:30;;;;;;;23.83;11.48;;;;;;;3.52;76.86;103177.84;6099116;19;20009;-76
2023/01/29 02:16:36;;;;;;;23.77;11.05;;;;;;;3.52;76.89;103172.66;6103793;19;20515;-76
2023/01/29 02:18:41;;;;;;;25.15;12.60;;;;;;;3.45;76.93;103166.44;6100900;19;20014;-76
2023/01/29 02:20:58;;;;;;;24.05;12.27;;;;;;;3.48;76.95;103161.31;6099756;19;20018;-77
2023/01/29 02:23:48;;;;;;;24.23;11.63;;;;;;;3.50;76.96;103170.03;6099365;19;20018;-76
2023/01/29 02:26:12;;;;;;;26.50;13.15;;;;;;;3.51;76.90;103173.50;6085992;19;20006;-76
2023/01/29 02:28:41;;;;;;;26.50;12.48;;;;;;;3.49;76.59;103176.03;6099181;19;20020;-76
2023/01/29 02:30:54;;;;;;;24.10;11.82;;;;;;;3.49;76.79;103181.25;6099609;19;20010;-76
2023/01/29 02:33:06;;;;;;;30.67;12.98;;;;;;;3.48;76.79;103186.41;6101150;19;20106;-77
2023/01/29 02:35:26;;;;;;;32.97;14.48;;;;;;;3.47;76.78;103169.03;6102741;19;20045;-77
2023/01/29 02:37:37;;;;;;;30.83;14.55;;;;;;;3.51;76.47;103179.56;6090186;19;20406;-76
2023/01/29 02:39:54;;;;;;;35.25;15.45;;;;;;;3.50;76.37;103174.31;6097520;19;20022;-76
2023/01/29 02:42:10;;;;;;;29.63;15.43;;;;;;;3.49;76.81;103182.97;6101027;19;20011;-76
2023/01/29 02:44:26;;;;;;;26.90;14.88;;;;;;;3.50;76.97;103179.53;6098644;19;20059;-75
2023/01/29 02:46:36;;;;;;;34.20;15.52;;;;;;;3.52;76.89;103186.53;6098686;19;20015;-76
2023/01/29 02:48:47;;;;;;;31.25;15.52;;;;;;;3.61;77.07;103187.63;6099275;19;20022;-77
2023/01/29 02:51:00;;;;;;;37.50;16.50;;;;;;;3.56;76.98;103184.03;6099886;19;20490;-76
2023/01/29 02:53:12;;;;;;;34.40;16.45;;;;;;;3.57;77.15;103184.03;6098488;19;20394;-76
2023/01/29 02:55:25;;;;;;;36.35;16.83;;;;;;;3.53;77.19;103179.63;6103154;19;20070;-76
2023/01/29 02:57:35;;;;;;;37.38;17.42;;;;;;;3.50;77.25;103180.44;6078357;19;20011;-77
2023/01/29 02:59:49;;;;;;;31.40;15.68;;;;;;;3.47;77.34;103177.72;6101222;19;20094;-76
2023/01/29 03:02:00;;;;;;;36.95;17.63;;;;;;;3.49;77.72;103175.19;6100150;19;20470;-77
2023/01/29 03:04:11;;;;;;;33.70;16.95;;;;;;;3.47;77.79;103167.31;6100318;19;20316;-76
2023/01/29 03:06:27;;;;;;;39.88;16.75;;;;;;;3.45;77.95;103174.22;6100493;19;20375;-75
2023/01/29 03:08:41;;;;;;;37.22;17.45;;;;;;;3.48;77.77;103174.31;6098724;19;20356;-77
2023/01/29 03:10:57;;;;;;;38.03;17.92;;;;;;;3.45;77.88;103175.91;6101443;19;20334;-78
2023/01/29 03:13:08;;;;;;;36.38;17.58;;;;;;;3.46;78.09;103170.78;6098100;19;20018;-78
2023/01/29 03:15:25;;;;;;;38.10;17.30;;;;;;;3.47;77.82;103162.13;6098668;19;20014;-77
2023/01/29 03:17:39;;;;;;;36.17;17.40;;;;;;;3.52;77.67;103167.44;6094729;19;20027;-77
2023/01/29 03:19:49;;;;;;;35.30;16.60;;;;;;;3.51;77.38;103161.38;6099420;19;20502;-77
2023/01/29 03:22:00;;;;;;;36.90;16.55;;;;;;;3.51;77.49;103163.09;6099220;19;20032;-77
2023/01/29 03:33:35;;;;;;;33.03;14.38;;;;;;;3.54;76.76;103157.97;6100900;19;20011;-77
2023/01/29 03:35:48;;;;;;;34.08;16.55;;;;;;;3.51;77.24;103148.38;6105225;19;20011;-76
2023/01/29 03:37:55;;;;;;;38.55;16.98;;;;;;;3.46;77.54;103147.38;6105172;19;20087;-76
2023/01/29 03:40:00;;;;;;;40.03;16.80;;;;;;;3.46;77.21;103143.91;6104656;19;20142;-77
2023/01/29 03:42:15;;;;;;;34.40;17.38;;;;;;;3.44;77.36;103141.25;6105002;19;20785;-77
2023/01/29 03:44:28;;;;;;;43.20;18.08;;;;;;;3.45;77.20;103148.22;6102273;19;20014;-77
2023/01/29 03:46:43;;;;;;;36.35;17.30;;;;;;;3.47;77.45;103149.13;6104575;19;20047;-76
2023/01/29 03:48:57;;;;;;;34.40;17.58;;;;;;;3.47;77.19;103149.13;6106619;19;20011;-76
2023/01/29 03:51:16;;;;;;;36.03;17.63;;;;;;;3.46;77.42;103147.38;6107557;19;20040;-77
2023/01/29 03:53:27;;;;;;;38.88;19.40;;;;;;;3.47;77.10;103149.13;6082959;19;20030;-76
2023/01/29 03:55:39;;;;;;;34.95;17.17;;;;;;;3.46;77.17;103146.50;6106219;19;20018;-77
2023/01/29 03:57:56;;;;;;;30.55;16.33;;;;;;;3.47;77.04;103143.06;6111290;19;20526;-77
2023/01/29 04:00:08;;;;;;;29.77;15.93;;;;;;;3.51;77.11;103140.59;6110822;19;20240;-76
2023/01/29 04:02:26;;;;;;;37.92;16.17;;;;;;;3.47;77.41;103128.31;6112085;19;20026;-77
2023/01/29 04:04:35;;;;;;;35.85;17.05;;;;;;;3.46;77.27;103126.59;6110998;19;20006;-77
2023/01/29 04:06:45;;;;;;;43.13;17.73;;;;;;;3.49;77.14;103126.66;6110539;19;20014;-76
2023/01/29 04:08:57;;;;;;;37.13;16.88;;;;;;;3.45;77.58;103124.84;6109801;19;20035;-77
2023/01/29 04:11:12;;;;;;;31.95;17.15;;;;;;;3.46;77.48;103111.00;6109001;19;20479;-76
2023/01/29 04:13:21;;;;;;;34.38;15.93;;;;;;;3.46;77.34;103116.19;6101866;19;20120;-77
2023/01/29 04:15:35;;;;;;;39.42;18.27;;;;;;;3.43;77.29;103123.91;6099856;19;20430;-76
2023/01/29 04:17:46;;;;;;;34.92;17.58;;;;;;;3.41;77.69;103119.50;6104695;19;20717;-76
2023/01/29 04:19:52;;;;;;;36.47;17.02;;;;;;;3.42;77.66;103121.25;6082543;19;20483;-76
2023/01/29 04:22:05;;;;;;;39.35;17.77;;;;;;;3.41;77.51;103120.38;6102271;19;20011;-77
2023/01/29 04:24:13;;;;;;;36.22;16.92;;;;;;;3.44;77.47;103114.38;6103715;19;20010;-76
2023/01/29 04:26:33;;;;;;;35.65;18.77;;;;;;;3.49;77.19;103113.66;6104677;19;20476;-77
2023/01/29 04:28:52;;;;;;;34.38;15.95;;;;;;;3.47;77.33;103104.94;6100672;19;20025;-77
2023/01/29 04:31:06;;;;;;;33.78;17.33;;;;;;;3.47;77.07;103098.88;6103935;19;20010;-76
2023/01/29 04:33:31;;;;;;;38.20;17.05;;;;;;;3.46;77.21;103108.38;6105958;19;20014;-77
2023/01/29 04:35:52;;;;;;;37.53;18.02;;;;;;;3.48;76.79;103109.31;6101670;19;20115;-76
2023/01/29 04:38:08;;;;;;;37.90;16.90;;;;;;;3.51;77.08;103106.78;6103726;19;20090;-76
2023/01/29 04:40:29;;;;;;;37.58;17.52;;;;;;;3.48;77.00;103093.72;6103779;19;20082;-75
2023/01/29 04:42:46;;;;;;;34.63;16.92;;;;;;;3.51;76.67;103086.00;6083317;19;20340;-75
2023/01/29 04:45:00;;;;;;;33.90;17.60;;;;;;;3.53;76.52;103083.44;6102929;19;20018;-75
2023/01/29 04:47:18;;;;;;;32.92;17.50;;;;;;;3.50;76.92;103084.25;6105407;19;20023;-75
2023/01/29 04:49:38;;;;;;;33.08;16.80;;;;;;;3.52;76.51;103074.75;6104062;19;20015;-75
2023/01/29 04:51:52;;;;;;;32.90;15.85;;;;;;;3.56;76.04;103080.91;6097589;19;20015;-77
2023/01/29 04:54:04;;;;;;;33.08;16.77;;;;;;;3.52;76.07;103074.75;6100511;19;20007;-75
2023/01/29 04:56:15;;;;;;;34.63;17.73;;;;;;;3.52;76.29;103077.34;6104261;19;20010;-76
2023/01/29 04:58:28;;;;;;;33.00;15.95;;;;;;;3.56;76.28;103072.25;6105498;19;20077;-76
2023/01/29 05:00:39;;;;;;;34.60;15.95;;;;;;;3.56;75.85;103067.03;6104326;19;20023;-75
2023/01/29 05:02:46;;;;;;;39.20;17.63;;;;;;;3.57;76.01;103074.00;6103446;19;20350;-76
2023/01/29 05:04:57;;;;;;;36.00;16.33;;;;;;;3.56;76.14;103080.03;6102097;19;20618;-75
2023/01/29 05:07:05;;;;;;;35.60;15.65;;;;;;;3.59;75.57;103082.72;6104340;19;20492;-77
2023/01/29 05:09:11;;;;;;;33.25;16.42;;;;;;;3.59;75.49;103077.50;6104933;19;20014;-76
2023/01/29 05:11:19;;;;;;;33.85;16.35;;;;;;;3.57;75.84;103069.66;6103854;19;20018;-76
2023/01/29 05:13:30;;;;;;;35.50;15.77;;;;;;;3.59;75.70;103064.50;6097793;19;20020;-76
2023/01/29 05:15:43;;;;;;;31.15;15.65;;;;;;;3.58;75.70;103062.72;6099603;19;20034;-77
2023/01/29 05:17:48;;;;;;;;;;;;;;;3.53;76.02;103057.44;6103419;19;20011;-77
2023/01/29 05:20:01;;;;;;;32.70;16.73;;;;;;;3.57;75.83;103061.88;6101105;19;19921;-77
2023/01/29 05:22:10;;;;;;;33.08;16.83;;;;;;;3.52;76.33;103059.13;6102469;19;20043;-76
2023/01/29 05:24:18;;;;;;;39.72;16.35;;;;;;;3.51;76.61;103065.19;6104598;19;20019;-76
2023/01/29 05:28:41;;;;;;;35.60;16.45;;;;;;;3.49;76.62;103059.06;6103974;19;20003;-77
2023/01/29 05:30:50;;;;;;;36.65;17.15;;;;;;;3.49;76.47;103051.28;6100411;19;20429;-76
2023/01/29 05:32:56;;;;;;;38.75;17.50;;;;;;;3.51;76.77;103056.53;6103020;19;20535;-77
2023/01/29 05:35:03;;;;;;;35.97;15.82;;;;;;;3.49;76.61;103053.00;6082156;19;20021;-77
2023/01/29 05:37:09;;;;;;;34.17;16.95;;;;;;;3.46;76.90;103040.81;6103513;19;20011;-77
2023/01/29 05:39:14;;;;;;;39.17;16.40;;;;;;;3.46;76.83;103038.22;6105525;19;20040;-77
2023/01/29 05:41:19;;;;;;;33.15;16.10;;;;;;;3.54;76.55;103040.13;6081766;19;20040;-76
2023/01/29 05:43:28;;;;;;;31.90;16.40;;;;;;;3.54;76.50;103041.00;6097881;19;20010;-77
2023/01/29 05:45:33;;;;;;;34.60;16.67;;;;;;;3.59;76.42;103043.72;6101270;19;20483;-77
2023/01/29 05:47:41;;;;;;;33.60;16.98;;;;;;;3.58;76.39;103047.13;6099455;19;20519;-76
2023/01/29 05:49:46;;;;;;;37.55;17.55;;;;;;;3.59;76.14;103046.31;6102192;19;20053;-76
2023/01/29 05:51:54;;;;;;;37.08;16.92;;;;;;;3.59;76.43;103049.78;6102942;19;20011;-76
2023/01/29 05:53:59;;;;;;;33.58;15.60;;;;;;;3.63;75.94;103046.41;6100752;19;20007;-77
2023/01/29 05:56:05;;;;;;;34.88;16.83;;;;;;;3.61;76.21;103042.91;6104925;19;20464;-76
2023/01/29 05:58:11;;;;;;;34.40;16.75;;;;;;;3.63;76.12;103046.41;6099144;19;20014;-77
2023/01/29 06:00:22;;;;;;;32.25;15.00;;;;;;;3.61;76.36;103042.03;6102561;19;20017;-78
2023/01/29 06:02:27;;;;;;;27.42;15.02;;;;;;;3.62;76.38;103051.59;6102495;19;20011;-77
2023/01/29 06:04:32;;;;;;;32.08;15.73;;;;;;;3.61;76.53;103048.09;6103724;19;20014;-77
2023/01/29 06:06:40;;;;;;;34.72;15.77;;;;;;;3.60;76.61;103050.66;6104487;19;20535;-76
2023/01/29 06:08:48;;;;;;;34.92;15.45;;;;;;;3.59;76.62;103049.78;6102288;19;20025;-77
2023/01/29 06:10:53;;;;;;;38.53;15.95;;;;;;;3.56;76.63;103039.31;6102839;19;20035;-77
2023/01/29 06:13:02;;;;;;;35.83;17.00;;;;;;;3.57;76.58;103046.25;6102842;19;20385;-78
2023/01/29 06:15:10;;;;;;;34.85;16.08;;;;;;;3.58;76.53;103048.03;6102441;19;20475;-75
2023/01/29 06:17:15;;;;;;;39.55;17.35;;;;;;;3.56;76.84;103041.91;6103137;19;20823;-75
2023/01/29 06:19:20;;;;;;;40.50;18.23;;;;;;;3.63;76.65;103040.31;6100563;19;20010;-75
2023/01/29 06:21:25;;;;;;;37.05;17.65;;;;;;;3.60;76.55;103045.47;6101391;19;20022;-76
2023/01/29 06:23:30;;;;;;;34.30;14.80;;;;;;;3.57;76.42;103024.59;6074985;19;20038;-76
2023/01/29 06:25:38;;;;;;;36.13;16.75;;;;;;;3.60;76.25;103029.84;6104096;19;20052;-77
2023/01/29 06:27:43;;;;;;;35.90;17.48;;;;;;;3.59;76.18;103026.38;6104982;19;20010;-76
2023/01/29 06:29:51;;;;;;;33.40;16.05;;;;;;;3.62;76.21;103029.06;6100999;19;20481;-76
2023/01/29 06:31:56;;;;;;;38.17;19.17;;;;;;;3.61;76.36;103023.84;6102901;19;20326;-76
2023/01/29 06:34:02;;;;;;;38.42;17.30;;;;;;;3.64;75.85;103018.72;6099326;19;20106;-75
2023/01/29 06:36:11;;;;;;;32.63;16.58;;;;;;;3.63;75.99;103007.41;6100403;19;20093;-77
2023/01/29 06:38:17;;;;;;;33.95;16.67;;;;;;;3.64;75.82;103016.97;6102538;19;20034;-76
2023/01/29 06:40:24;;;;;;;36.05;16.75;;;;;;;3.63;76.23;103019.53;6102279;19;20002;-76
2023/01/29 06:42:32;;;;;;;36.40;17.02;;;;;;;3.64;75.88;103010.91;6103353;19;20015;-76
2023/01/29 06:44:37;;;;;;;36.72;17.98;;;;;;;3.62;75.73;103009.97;6103887;19;20035;-76
2023/01/29 06:46:42;;;;;;;37.13;16.35;;;;;;;3.63;75.99;103010.00;6100378;19;20010;-76
2023/01/29 06:48:47;;;;;;;33.35;15.77;;;;;;;3.60;76.22;103014.25;6099821;19;20021;-75
2023/01/29 06:50:53;;;;;;;36.63;16.15;;;;;;;3.62;76.01;103009.97;6101312;19;20014;-76
2023/01/29 06:53:01;;;;;;;36.95;16.92;;;;;;;3.63;75.82;103015.19;6097745;19;20036;-76
2023/01/29 06:55:09;;;;;;;36.28;17.15;;;;;;;3.65;76.01;103010.06;6102385;19;20358;-75
2023/01/29 06:57:18;;;;;;;40.83;16.55;;;;;;;3.60;75.88;103001.25;6081705;19;20482;-75
2023/01/29 06:59:26;;;;;;;36.63;17.67;;;;;;;3.63;76.07;103003.94;6103879;19;20011;-75
2023/01/29 07:01:33;;;;;;;38.22;17.27;;;;;;;3.64;76.07;103005.69;6104318;19;20078;-76
2023/01/29 07:03:42;;;;;;;38.20;17.13;;;;;;;3.63;76.04;103004.81;6108675;19;20368;-76
2023/01/29 07:05:54;;;;;;;38.50;18.45;;;;;;;3.64;75.89;103003.97;6110620;19;21359;-75
2023/01/29 07:08:02;;;;;;;43.25;18.58;;;;;;;3.64;75.68;103005.69;6108667;19;20069;-76
2023/01/29 07:10:10;;;;;;;37.70;17.02;;;;;;;3.62;75.95;103003.06;6107212;19;20027;-75
2023/01/29 07:12:15;;;;;;;33.78;17.27;;;;;;;3.61;76.02;103008.25;6105980;19;20015;-75
2023/01/29 07:14:20;;;;;;;36.72;17.40;;;;;;;3.63;75.83;103009.13;6107266;19;20470;-75
2023/01/29 07:16:28;;;;;;;36.40;18.00;;;;;;;3.66;75.69;103014.38;6105551;19;20014;-76
2023/01/29 07:18:34;;;;;;;38.65;17.67;;;;;;;3.66;75.86;103017.91;6106925;19;20468;-76
2023/01/29 07:20:40;;;;;;;39.90;18.30;;;;;;;3.66;76.00;103019.59;6103974;19;20015;-76
2023/01/29 07:22:45;;;;;;;40.45;16.75;;;;;;;3.68;75.76;103010.97;6104364;19;20023;-76
2023/01/29 07:24:50;;;;;;;35.92;17.92;;;;;;;3.68;75.76;103010.97;6107547;19;20006;-76
2023/01/29 07:26:55;;;;;;;40.42;17.92;;;;;;;3.67;75.58;103011.84;6105909;19;20014;-76
2023/01/29 07:29:01;;;;;;;35.90;18.20;;;;;;;3.69;75.44;103011.88;6107424;19;20370;-77
2023/01/29 07:31:07;;;;;;;36.13;17.83;;;;;;;3.67;75.73;103005.78;6105036;19;20063;-77
2023/01/29 07:33:14;;;;;;;37.45;18.13;;;;;;;3.63;76.13;103006.53;6107382;19;20010;-76
2023/01/29 07:35:21;;;;;;;38.42;17.95;;;;;;;3.66;76.34;103010.09;6107135;19;20317;-75
2023/01/29 07:37:26;;;;;;;35.95;17.90;;;;;;;3.67;75.95;103019.63;6105703;19;20010;-76
2023/01/29 07:39:31;;;;;;;38.85;17.70;;;;;;;3.65;76.04;103018.72;6083368;19;20014;-77
2023/01/29 07:41:37;;;;;;;37.03;19.08;;;;;;;3.66;76.26;103014.38;6110233;19;20015;-77
2023/01/29 07:43:42;;;;;;;35.40;16.33;;;;;;;3.65;76.24;103013.53;6109655;19;20073;-76
2023/01/29 07:45:47;;;;;;;37.30;16.85;;;;;;;3.66;76.59;103011.78;6107960;19;21343;-77
2023/01/29 07:47:54;;;;;;;48.47;18.65;;;;;;;3.65;76.46;103012.66;6109064;19;20006;-76
2023/01/29 07:50:02;;;;;;;39.47;19.38;;;;;;;3.63;76.55;103007.41;6110765;19;20705;-76
2023/01/29 07:52:08;;;;;;;40.22;17.52;;;;;;;3.68;76.32;103005.78;6106912;19;20321;-76
2023/01/29 07:54:14;;;;;;;42.03;21.02;;;;;;;3.69;76.15;103006.69;6108544;19;20022;-76
2023/01/29 07:56:19;;;;;;;41.78;16.83;;;;;;;3.70;76.39;103005.84;6107987;19;20019;-76
2023/01/29 07:58:24;;;;;;;35.95;18.23;;;;;;;3.69;76.35;102997.16;6109441;19;20011;-76
2023/01/29 08:00:30;;;;;;;43.75;18.83;;;;;;;3.70;76.34;102998.91;6107024;19;20519;-77
2023/01/29 08:02:35;;;;;;;39.40;18.30;;;;;;;3.73;76.26;103003.28;6099765;19;20126;-76
2023/01/29 08:04:40;;;;;;;39.30;18.13;;;;;;;3.74;76.50;103002.47;6107886;19;20048;-77
2023/01/29 08:06:48;;;;;;;43.88;18.80;;;;;;;3.70;76.37;102991.09;6107454;19;20006;-76
2023/01/29 08:08:54;;;;;;;37.72;17.58;;;;;;;3.73;76.58;102990.28;6107247;19;20027;-77
2023/01/29 08:11:03;;;;;;;43.58;19.17;;;;;;;3.77;76.22;103005.13;6103160;19;20065;-76
2023/01/29 08:13:11;;;;;;;39.45;18.50;;;;;;;3.80;76.56;102997.41;6106355;19;20048;-76
2023/01/29 08:15:17;;;;;;;40.95;18.77;;;;;;;3.80;76.25;102996.53;6104200;19;20018;-76
2023/01/29 08:17:22;;;;;;;44.28;19.00;;;;;;;3.80;76.45;102997.41;6106506;19;20015;-75
2023/01/29 08:19:28;;;;;;;38.63;18.33;;;;;;;3.81;76.48;102983.53;6107439;19;20011;-76
2023/01/29 08:21:34;;;;;;;38.22;20.20;;;;;;;3.84;76.32;102991.41;6102070;19;20500;-76
2023/01/29 08:23:42;;;;;;;40.70;18.42;;;;;;;3.82;76.24;102985.31;6104091;19;20031;-76
2023/01/29 08:25:47;;;;;;;41.20;18.25;;;;;;;3.83;76.06;102975.78;6103915;19;20656;-76
2023/01/29 08:27:53;;;;;;;36.90;17.83;;;;;;;3.90;75.86;102977.69;6107006;19;21388;-77
2023/01/29 08:29:58;;;;;;;41.72;19.33;;;;;;;3.89;75.88;102987.19;6102909;19;20018;-77
2023/01/29 08:32:06;;;;;;;39.28;18.05;;;;;;;3.90;75.63;102975.09;6104576;19;20014;-77
2023/01/29 08:34:11;;;;;;;42.58;19.17;;;;;;;3.96;75.29;102968.28;6107569;19;20035;-77
2023/01/29 08:36:19;;;;;;;43.42;20.23;;;;;;;3.97;75.38;102963.94;6105285;19;20516;-77
2023/01/29 08:38:24;;;;;;;43.05;19.02;;;;;;;3.98;75.36;102970.91;6106703;19;20035;-77
2023/01/29 08:40:34;;;;;;;40.03;18.85;;;;;;;4.00;75.50;102971.81;6105560;19;20396;-76
2023/01/29 08:42:40;;;;;;;40.03;17.83;;;;;;;4.03;75.46;102968.38;6106107;19;20483;-76
2023/01/29 08:44:45;;;;;;;41.83;19.25;;;;;;;4.01;75.80;102972.72;6107728;19;20038;-76
2023/01/29 08:46:50;;;;;;;41.20;19.05;;;;;;;4.00;75.68;102963.13;6103641;19;20086;-78
2023/01/29 08:48:55;;;;;;;44.53;19.42;;;;;;;4.08;75.26;102956.34;6108248;19;20007;-76
2023/01/29 08:51:03;;;;;;;45.22;19.67;;;;;;;4.08;75.48;102959.84;6107508;19;20023;-76
2023/01/29 08:53:12;;;;;;;42.67;19.42;;;;;;;4.10;75.43;102965.94;6104219;19;20590;-76
2023/01/29 08:55:18;;;;;;;42.15;20.25;;;;;;;4.10;75.32;102955.53;6083440;19;20047;-77
2023/01/29 08:57:26;;;;;;;45.08;20.13;;;;;;;4.09;75.36;102952.94;6104998;19;20010;-75
2023/01/29 08:59:35;;;;;;;44.65;18.75;;;;;;;4.10;75.32;102955.53;6103018;19;20013;-76
2023/01/29 09:01:40;;;;;;;48.83;19.77;;;;;;;4.14;75.59;102953.91;6105213;19;20017;-76
2023/01/29 09:03:45;;;;;;;45.50;20.60;;;;;;;4.13;75.47;102958.22;6098766;19;20014;-76
2023/01/29 09:05:51;;;;;;;49.88;22.38;;;;;;;4.16;75.68;102959.97;6108065;19;20010;-77
2023/01/29 09:07:58;;;;;;;41.05;19.48;;;;;;;4.17;75.71;102948.75;6105314;19;20082;-76
2023/01/29 09:10:03;;;;;;;49.83;22.75;;;;;;;4.22;75.69;102949.72;6106146;19;20335;-76
2023/01/29 09:12:08;;;;;;;43.58;20.52;;;;;;;4.26;76.02;102948.91;6103465;19;20007;-76
2023/01/29 09:14:17;;;;;;;45.00;20.90;;;;;;;4.26;75.80;102948.91;6104942;19;20032;-76
2023/01/29 09:16:22;;;;;;;50.17;21.75;;;;;;;4.27;75.78;102945.47;6104999;19;20010;-76
2023/01/29 09:18:27;;;;;;;52.03;21.30;;;;;;;4.33;75.94;102957.72;6104951;19;20348;-76
2023/01/29 09:20:32;;;;;;;57.33;22.45;;;;;;;4.32;75.71;102956.88;6104226;19;20031;-75
2023/01/29 09:22:40;;;;;;;51.88;22.17;;;;;;;4.36;75.61;102956.06;6099665;19;20011;-75
2023/01/29 09:24:45;;;;;;;48.58;20.52;;;;;;;4.37;75.59;102960.44;6103123;19;20374;-75
2023/01/29 09:26:51;;;;;;;42.78;20.67;;;;;;;4.39;75.56;102955.25;6104068;19;20007;-75
2023/01/29 09:28:57;;;;;;;49.78;21.52;;;;;;;4.44;75.82;102952.72;6101310;19;20014;-77
2023/01/29 09:31:05;;;;;;;49.30;21.83;;;;;;;4.43;75.48;102951.84;6098516;19;20010;-77
2023/01/29 09:33:11;;;;;;;51.47;20.83;;;;;;;4.45;75.63;102946.66;6102798;19;20018;-78
2023/01/29 09:35:16;;;;;;;48.05;22.58;;;;;;;4.45;75.49;102949.25;6101822;19;20030;-78
2023/01/29 09:37:22;;;;;;;52.85;21.27;;;;;;;4.49;75.37;102948.50;6103847;19;20531;-76
2023/01/29 09:39:28;;;;;;;50.30;22.35;;;;;;;4.43;75.64;102949.25;6102874;19;20066;-77
2023/01/29 09:41:45;;;;;;;50.33;23.50;;;;;;;4.48;75.71;102951.94;6097149;19;20032;-76
2023/01/29 09:43:54;;;;;;;47.00;21.15;;;;;;;4.48;75.50;102949.34;6103194;19;20358;-76
2023/01/29 09:46:07;;;;;;;51.75;22.80;;;;;;;4.48;75.54;102957.16;6101472;19;20011;-77
2023/01/29 09:48:14;;;;;;;51.75;22.98;;;;;;;4.48;75.37;102946.75;6101066;19;20043;-76
2023/01/29 09:50:23;;;;;;;60.25;24.00;;;;;;;4.46;75.62;102946.69;6103595;19;20010;-76
2023/01/29 09:52:31;;;;;;;44.00;20.88;;;;;;;4.49;74.73;102938.94;6077247;19;20011;-77
2023/01/29 09:54:53;;;;;;;55.33;24.13;;;;;;;4.43;75.04;102945.78;6101642;19;20006;-76
2023/01/29 09:56:59;;;;;;;55.78;22.55;;;;;;;4.45;75.22;102939.75;6101458;19;20369;-77
2023/01/29 09:59:07;;;;;;;65.72;23.95;;;;;;;4.43;75.45;102941.44;6100692;19;20014;-77
2023/01/29 10:01:24;;;;;;;55.75;24.60;;;;;;;4.44;75.50;102930.16;6097092;19;20471;-76
2023/01/29 10:03:45;;;;;;;60.92;23.08;;;;;;;4.44;75.34;102934.50;6101340;19;20086;-77
2023/01/29 10:06:01;;;;;;;56.78;25.88;;;;;;;4.41;75.47;102935.31;6100999;19;20523;-75
2023/01/29 10:08:46;;;;;;;59.03;24.55;;;;;;;4.44;74.71;102926.69;6110052;19;20404;-77
2023/01/29 10:10:53;;;;;;;63.15;24.55;;;;;;;4.37;75.33;102924.00;6107203;19;20021;-76
2023/01/29 10:13:09;;;;;;;60.80;26.10;;;;;;;4.38;75.20;102928.34;6109842;19;20024;-77
2023/01/29 10:15:31;;;;;;;52.80;23.05;;;;;;;4.38;75.38;102920.53;6108423;19;20093;-76
2023/01/29 10:17:55;;;;;;;55.33;25.48;;;;;;;4.44;75.23;102916.28;6107822;19;20532;-77
2023/01/29 10:20:26;;;;;;;63.65;27.13;;;;;;;4.42;75.08;102921.44;6108066;19;20715;-78